Meath Environmental Platform

Observations for Trim Market St

Time AQI Temp °C Hum % Pres Pa CO μg/m³ H₂S μg/m³ NO μg/m³ NO₂ μg/m³ O₃ μg/m³ SO₂ μg/m³ PM1 μg/m³ PM2.5 μg/m³ PM10 μg/m³
Tuesday 18 August 2026
00:04 2 19.9 81 2,147,483,647 0.02 0 2.14 0 48.89 0 1.43 3.01 5.85
00:01 2 19.9 81 2,147,483,647 0.04 0 2.16 0 48.42 0 1.43 3.48 6.41
00:00 2 20 81 2,147,483,647 0.02 0 2.2 0 46.6 0 0.71 2.06 4.73
Monday 17 August 2026
23:59 2 20 81 2,147,483,647 0.03 0 2.2 0 44.52 0 1.43 3 6.41
23:51 2 20 82 2,147,483,647 0.02 0 2.02 0 56.43 0 1.43 2.51 5.3
23:49 2 20 82 2,147,483,647 0.03 0 2.18 0 54.14 0 0.71 1.56 4.19
23:48 2 20 82 2,147,483,647 0.03 0 2.21 0 53.85 0 0.71 1.56 4.19
23:47 2 20 82 2,147,483,647 0.03 0 2.24 0 43.19 0 0.71 1.56 4.19
23:46 2 20 82 2,147,483,647 0.02 0 2.24 0 51.36 0 0.71 2.03 5.3
23:45 2 20 82 2,147,483,647 0.03 0 2.24 0 45.62 0 1.43 2.49 5.86
23:44 2 20 82 2,147,483,647 0.01 0 2.24 0 50.06 0 0.71 1.56 4.75
23:43 2 20 82 2,147,483,647 0.04 0 2.25 0 46.91 0 0.71 1.55 4.2
23:42 2 20 82 2,147,483,647 0.03 0 2.26 0 52.88 0 0.71 2.49 6.42
23:41 2 20 82 2,147,483,647 0.04 0 2.28 0 49.29 0 0 2.02 4.75
23:40 2 20 82 2,147,483,647 0.05 0 2.28 0 41.69 0 0 2.02 4.76
23:39 2 20 82 2,147,483,647 0.03 0 2.28 0 47.34 0 0 1.08 4.2
23:38 2 20 82 2,147,483,647 0.03 0 2.27 0 47.49 0 0.71 1.55 4.2
23:36 2 20 82 2,147,483,647 0.02 0 2.28 0 50.92 0 0 1.54 4.76
23:35 2 20 82 2,147,483,647 0.03 0 2.27 0 49.03 0 0.71 2.01 4.76
23:34 2 20 82 2,147,483,647 0.03 0 2.27 0 56.25 0 0.71 2.01 4.76